Time;durP1;ratioP1;P1;durP2;ratioP2;P2;SDS_P1;SDS_P2;PMS_P1;PMS_P2;Temp;Humidity;BMP_temperature;BMP_pressure;BME280_temperature;BME280_humidity;BME280_pressure;Samples;Min_cycle;Max_cycle;Signal;HPM_P1;HPM_P2
2023/06/11 00:02:00;;;;;;;5.18;4.72;;;;;;;;;;5002855;28;20045;-90
2023/06/11 00:04:28;;;;;;;5.55;4.97;;;;;;;;;;5035650;28;20095;-90
2023/06/11 00:06:57;;;;;;;5.20;4.68;;;;;;;;;;5035593;28;20493;-90
2023/06/11 00:09:26;;;;;;;5.97;5.43;;;;;;;;;;5019165;28;20045;-90
2023/06/11 00:11:53;;;;;;;5.43;5.13;;;;;;;;;;5019309;28;20397;-90
2023/06/11 00:14:22;;;;;;;7.13;5.78;;;;;;;;;;5019124;28;20052;-89
2023/06/11 00:16:51;;;;;;;6.63;5.63;;;;;;;;;;5018455;28;20092;-90
2023/06/11 00:19:22;;;;;;;6.32;5.80;;;;;;;;;;5019625;28;20053;-90
2023/06/11 00:21:51;;;;;;;5.95;5.35;;;;;;;;;;5019535;28;20117;-90
2023/06/11 00:24:20;;;;;;;6.22;5.65;;;;;;;;;;5018909;28;20045;-89
2023/06/11 00:26:46;;;;;;;6.13;5.47;;;;;;;;;;5019205;28;20049;-89
2023/06/11 00:29:12;;;;;;;6.07;5.65;;;;;;;;;;5017658;28;20046;-89
2023/06/11 00:31:41;;;;;;;6.43;5.82;;;;;;;;;;5035139;28;20049;-90
2023/06/11 00:34:07;;;;;;;4.90;4.47;;;;;;;;;;5018805;28;20053;-90
2023/06/11 00:36:35;;;;;;;4.95;4.65;;;;;;;;;;5018042;28;20531;-89
2023/06/11 00:39:02;;;;;;;5.85;5.40;;;;;;;;;;5018672;28;20441;-90
2023/06/11 00:41:29;;;;;;;5.30;4.88;;;;;;;;;;5018108;28;20136;-89
2023/06/11 00:44:09;;;;;;;5.28;4.97;;;;;;;;;;5019012;28;20072;-89
2023/06/11 00:46:39;;;;;;;5.07;4.68;;;;;;;;;;5018295;28;20056;-89
2023/06/11 00:49:05;;;;;;;5.88;5.38;;;;;;;;;;5001944;28;20383;-89
2023/06/11 00:51:32;;;;;;;5.70;5.20;;;;;;;;;;5017530;28;20053;-89
2023/06/11 00:53:58;;;;;;;6.00;5.25;;;;;;;;;;5017391;28;20402;-89
2023/06/11 00:56:26;;;;;;;5.20;4.70;;;;;;;;;;5018108;28;20436;-89
2023/06/11 00:58:53;;;;;;;6.13;4.88;;;;;;;;;;5017259;28;20140;-89
2023/06/11 01:01:25;;;;;;;5.55;4.72;;;;;;;;;;5017914;28;20038;-89
2023/06/11 01:03:56;;;;;;;5.38;4.72;;;;;;;;;;5034451;28;20140;-89
2023/06/11 01:06:25;;;;;;;5.18;4.68;;;;;;;;;;5018031;28;20049;-89
2023/06/11 01:08:57;;;;;;;5.50;5.15;;;;;;;;;;5017899;28;20052;-88
2023/06/11 01:11:26;;;;;;;5.40;4.93;;;;;;;;;;5033966;28;20108;-89
2023/06/11 01:13:53;;;;;;;5.35;5.00;;;;;;;;;;5017379;28;20195;-89
2023/06/11 01:16:28;;;;;;;4.72;4.50;;;;;;;;;;5017518;28;20045;-88
2023/06/11 01:19:03;;;;;;;4.88;4.32;;;;;;;;;;5034010;28;20053;-88
2023/06/11 01:21:33;;;;;;;5.05;4.60;;;;;;;;;;5017840;28;20056;-88
2023/06/11 01:24:07;;;;;;;5.15;4.75;;;;;;;;;;5017845;28;20505;-89
2023/06/11 01:26:56;;;;;;;4.70;4.40;;;;;;;;;;5016624;28;20049;-89
2023/06/11 01:29:23;;;;;;;4.70;4.40;;;;;;;;;;5007275;28;20088;-88
2023/06/11 01:31:52;;;;;;;5.53;5.13;;;;;;;;;;5017025;28;20045;-89
2023/06/11 01:34:19;;;;;;;5.35;5.05;;;;;;;;;;5033370;28;20050;-89
2023/06/11 01:36:46;;;;;;;6.47;5.47;;;;;;;;;;5033808;28;20103;-88
2023/06/11 01:39:15;;;;;;;5.32;4.97;;;;;;;;;;5033571;28;20084;-88
2023/06/11 01:41:43;;;;;;;6.03;5.63;;;;;;;;;;5033167;28;20050;-88
2023/06/11 01:44:12;;;;;;;5.90;5.38;;;;;;;;;;5017212;28;20053;-89
2023/06/11 01:46:50;;;;;;;4.88;4.68;;;;;;;;;;5017441;28;20096;-88
2023/06/11 01:49:16;;;;;;;5.70;5.40;;;;;;;;;;5016882;28;20140;-88
2023/06/11 01:51:42;;;;;;;5.60;5.15;;;;;;;;;;5017188;28;20045;-88
2023/06/11 01:54:09;;;;;;;5.57;5.28;;;;;;;;;;5017540;28;20381;-88
2023/06/11 01:56:35;;;;;;;5.63;5.32;;;;;;;;;;5016549;28;20046;-88
2023/06/11 01:59:05;;;;;;;5.63;5.32;;;;;;;;;;5032450;28;20178;-88
2023/06/11 02:01:34;;;;;;;6.13;5.63;;;;;;;;;;5017177;28;20386;-88
2023/06/11 02:04:00;;;;;;;5.75;5.18;;;;;;;;;;5016511;28;20049;-88
2023/06/11 02:06:26;;;;;;;6.15;4.95;;;;;;;;;;5016667;28;20049;-88
2023/06/11 02:08:52;;;;;;;6.28;5.65;;;;;;;;;;5016724;28;20053;-88
2023/06/11 02:11:18;;;;;;;5.97;5.47;;;;;;;;;;5016329;28;20045;-88
2023/06/11 02:13:45;;;;;;;6.10;5.65;;;;;;;;;;5016641;28;20132;-88
2023/06/11 02:16:11;;;;;;;5.50;5.20;;;;;;;;;;5032843;28;20103;-86
2023/06/11 02:18:39;;;;;;;5.82;5.47;;;;;;;;;;5032860;28;20505;-88
2023/06/11 02:21:05;;;;;;;6.40;5.82;;;;;;;;;;5032960;28;20596;-87
2023/06/11 02:23:31;;;;;;;6.75;5.70;;;;;;;;;;5000182;28;20073;-87
2023/06/11 02:26:00;;;;;;;6.25;4.90;;;;;;;;;;5016916;28;20054;-87
2023/06/11 02:28:26;;;;;;;6.10;5.70;;;;;;;;;;5000489;28;20132;-88
2023/06/11 02:30:52;;;;;;;5.88;5.32;;;;;;;;;;5018054;28;20048;-87
2023/06/11 02:33:18;;;;;;;5.57;5.15;;;;;;;;;;5038774;28;20045;-87
2023/06/11 02:35:44;;;;;;;5.13;4.93;;;;;;;;;;5032770;28;20045;-87
2023/06/11 02:38:13;;;;;;;6.70;5.88;;;;;;;;;;5027275;28;20049;-88
2023/06/11 02:40:39;;;;;;;5.93;5.53;;;;;;;;;;5000726;28;20056;-88
2023/06/11 02:43:05;;;;;;;6.93;6.53;;;;;;;;;;5016630;28;20049;-87
2023/06/11 02:45:32;;;;;;;7.03;6.55;;;;;;;;;;4996394;28;20054;-87
2023/06/11 02:47:58;;;;;;;7.13;6.63;;;;;;;;;;5012644;28;20065;-86
2023/06/11 02:50:24;;;;;;;6.03;5.63;;;;;;;;;;4996349;28;20042;-86
2023/06/11 02:52:50;;;;;;;7.28;6.78;;;;;;;;;;5012407;28;20574;-87
2023/06/11 02:55:19;;;;;;;7.68;7.07;;;;;;;;;;4996318;28;20059;-87
2023/06/11 02:57:45;;;;;;;7.03;6.38;;;;;;;;;;4996390;28;20057;-87
2023/06/11 03:00:11;;;;;;;6.35;5.88;;;;;;;;;;5011902;28;20042;-86
2023/06/11 03:02:38;;;;;;;6.28;5.88;;;;;;;;;;4996311;28;20058;-87
2023/06/11 03:05:04;;;;;;;6.93;6.53;;;;;;;;;;4996144;28;20049;-86
2023/06/11 03:07:30;;;;;;;7.18;6.60;;;;;;;;;;4996166;28;20049;-86
2023/06/11 03:09:56;;;;;;;7.03;6.45;;;;;;;;;;4996344;28;20038;-86
2023/06/11 03:12:22;;;;;;;6.95;6.55;;;;;;;;;;5012317;28;20046;-86
2023/06/11 03:14:48;;;;;;;7.35;6.82;;;;;;;;;;4996013;28;20054;-87
2023/06/11 03:17:14;;;;;;;7.13;6.47;;;;;;;;;;4998746;28;20050;-87
2023/06/11 03:19:41;;;;;;;8.32;7.50;;;;;;;;;;4999776;28;20058;-87
2023/06/11 03:22:07;;;;;;;7.88;7.25;;;;;;;;;;4983791;28;20056;-87
2023/06/11 03:24:33;;;;;;;7.00;6.40;;;;;;;;;;5016178;28;20490;-86
2023/06/11 03:26:59;;;;;;;8.00;7.47;;;;;;;;;;4983473;28;20433;-86
2023/06/11 03:29:25;;;;;;;7.28;6.78;;;;;;;;;;5015024;28;20092;-86
2023/06/11 03:31:51;;;;;;;6.82;6.43;;;;;;;;;;5015717;28;20054;-87
2023/06/11 03:34:17;;;;;;;7.40;6.90;;;;;;;;;;5015712;28;20509;-86
2023/06/11 03:36:43;;;;;;;7.40;6.88;;;;;;;;;;4983160;28;20375;-86
2023/06/11 03:39:10;;;;;;;7.47;6.97;;;;;;;;;;4998916;28;20081;-86
2023/06/11 03:41:36;;;;;;;7.43;6.82;;;;;;;;;;4999133;28;20101;-86
2023/06/11 03:44:02;;;;;;;7.60;7.05;;;;;;;;;;5001970;28;20123;-86
2023/06/11 03:46:30;;;;;;;7.88;7.40;;;;;;;;;;5035119;28;20048;-86
2023/06/11 03:48:57;;;;;;;7.50;7.00;;;;;;;;;;5019146;28;20053;-86
2023/06/11 03:51:26;;;;;;;7.72;7.22;;;;;;;;;;5034855;28;20053;-85
2023/06/11 03:53:52;;;;;;;7.85;7.18;;;;;;;;;;5035023;28;20108;-86
2023/06/11 03:56:18;;;;;;;7.90;7.40;;;;;;;;;;5018514;28;20137;-86
2023/06/11 03:58:44;;;;;;;7.15;6.75;;;;;;;;;;5017991;28;20041;-87
2023/06/11 04:01:11;;;;;;;8.15;7.57;;;;;;;;;;5002237;28;20056;-86
2023/06/11 04:03:37;;;;;;;8.60;8.00;;;;;;;;;;5002360;28;20087;-87
2023/06/11 04:06:03;;;;;;;7.70;7.10;;;;;;;;;;5034892;28;20049;-87
2023/06/11 04:08:29;;;;;;;7.57;7.07;;;;;;;;;;5018626;28;20045;-85
2023/06/11 04:10:55;;;;;;;7.97;7.43;;;;;;;;;;5018482;28;20474;-87
2023/06/11 04:13:21;;;;;;;8.00;7.35;;;;;;;;;;5002514;28;20135;-92
2023/06/11 04:15:47;;;;;;;8.68;8.07;;;;;;;;;;5035053;28;20149;-86
2023/06/11 04:18:13;;;;;;;8.50;7.88;;;;;;;;;;5034519;28;20057;-87
2023/06/11 04:20:39;;;;;;;8.23;7.63;;;;;;;;;;5034536;28;20076;-87
2023/06/11 04:23:06;;;;;;;8.88;8.27;;;;;;;;;;5001908;28;20041;-86
2023/06/11 04:25:33;;;;;;;8.90;8.27;;;;;;;;;;5018157;28;20058;-86
2023/06/11 04:27:59;;;;;;;8.80;8.25;;;;;;;;;;5016569;28;20042;-85
2023/06/11 04:30:26;;;;;;;8.32;7.70;;;;;;;;;;5034358;28;20091;-85
2023/06/11 04:32:54;;;;;;;8.55;7.97;;;;;;;;;;5017708;28;20060;-85
2023/06/11 04:35:23;;;;;;;8.43;7.82;;;;;;;;;;5017853;28;20414;-85
2023/06/11 04:37:58;;;;;;;9.45;8.82;;;;;;;;;;5035013;28;20466;-85
2023/06/11 04:40:25;;;;;;;9.07;8.48;;;;;;;;;;5034651;28;20056;-85
2023/06/11 04:42:51;;;;;;;8.65;8.05;;;;;;;;;;5001606;28;20056;-85
2023/06/11 04:45:20;;;;;;;8.88;8.05;;;;;;;;;;5017876;28;20398;-85
2023/06/11 04:47:46;;;;;;;8.85;8.27;;;;;;;;;;5017627;28;20053;-85
2023/06/11 04:50:20;;;;;;;9.95;9.20;;;;;;;;;;5017254;28;20042;-85
2023/06/11 04:52:46;;;;;;;9.15;8.52;;;;;;;;;;5033998;28;20052;-85
2023/06/11 04:55:13;;;;;;;10.82;9.90;;;;;;;;;;5017728;28;20041;-85
2023/06/11 04:57:39;;;;;;;10.18;9.40;;;;;;;;;;5033516;28;20084;-84
2023/06/11 05:00:10;;;;;;;9.60;9.02;;;;;;;;;;5017290;28;20077;-84
2023/06/11 05:02:38;;;;;;;9.90;9.18;;;;;;;;;;5033649;28;20053;-84
2023/06/11 05:05:05;;;;;;;9.88;9.18;;;;;;;;;;5017183;28;20099;-85
2023/06/11 05:07:31;;;;;;;10.27;9.60;;;;;;;;;;5033649;28;20059;-85
2023/06/11 05:09:58;;;;;;;9.80;8.90;;;;;;;;;;5017264;28;20037;-84
2023/06/11 05:12:24;;;;;;;10.60;9.90;;;;;;;;;;5017117;28;20053;-85
2023/06/11 05:14:50;;;;;;;10.07;9.27;;;;;;;;;;5017528;28;20053;-84
2023/06/11 05:17:16;;;;;;;9.98;9.05;;;;;;;;;;5001341;28;20135;-85
2023/06/11 05:19:43;;;;;;;9.75;8.95;;;;;;;;;;5017672;28;20087;-85
2023/06/11 05:22:09;;;;;;;9.63;8.90;;;;;;;;;;5033634;28;20481;-85
2023/06/11 05:24:35;;;;;;;9.60;8.80;;;;;;;;;;5016858;28;20052;-85
2023/06/11 05:27:03;;;;;;;8.77;8.27;;;;;;;;;;5033096;28;20056;-85
2023/06/11 05:29:30;;;;;;;8.82;8.13;;;;;;;;;;5000383;28;20056;-85
2023/06/11 05:31:56;;;;;;;9.68;8.88;;;;;;;;;;5000443;28;20057;-85
2023/06/11 05:34:23;;;;;;;9.30;8.70;;;;;;;;;;5017123;28;20051;-86
2023/06/11 05:36:49;;;;;;;8.60;8.10;;;;;;;;;;5033910;28;20056;-86
2023/06/11 05:39:15;;;;;;;9.82;9.02;;;;;;;;;;5016876;28;20448;-85
2023/06/11 05:41:41;;;;;;;8.45;7.97;;;;;;;;;;5016668;28;20052;-85
2023/06/11 05:44:08;;;;;;;8.88;8.38;;;;;;;;;;5016783;28;20103;-86
2023/06/11 05:46:34;;;;;;;9.05;8.35;;;;;;;;;;5033306;28;20049;-85
2023/06/11 05:49:00;;;;;;;8.45;7.95;;;;;;;;;;5000375;28;20402;-87
2023/06/11 05:51:26;;;;;;;8.63;7.95;;;;;;;;;;5016371;28;20041;-87
2023/06/11 05:53:52;;;;;;;8.40;7.70;;;;;;;;;;5016339;28;20500;-87
2023/06/11 05:56:18;;;;;;;7.93;7.43;;;;;;;;;;5016566;28;20133;-87
2023/06/11 05:58:44;;;;;;;9.38;8.68;;;;;;;;;;5016304;28;20469;-87
2023/06/11 06:01:12;;;;;;;7.85;7.28;;;;;;;;;;5016534;28;20421;-86
2023/06/11 06:03:38;;;;;;;8.65;8.00;;;;;;;;;;5016653;28;20060;-87
2023/06/11 06:06:04;;;;;;;8.43;7.78;;;;;;;;;;5032926;28;20041;-87
2023/06/11 06:08:31;;;;;;;8.80;8.10;;;;;;;;;;5016335;28;20049;-87
2023/06/11 06:10:57;;;;;;;8.20;7.53;;;;;;;;;;5016999;28;20564;-87
2023/06/11 06:13:24;;;;;;;8.15;7.50;;;;;;;;;;5032538;28;20478;-86
2023/06/11 06:15:52;;;;;;;8.82;8.23;;;;;;;;;;5000199;28;20469;-87
2023/06/11 06:18:18;;;;;;;8.93;8.32;;;;;;;;;;5016216;28;20490;-87
2023/06/11 06:20:46;;;;;;;8.85;8.07;;;;;;;;;;5016433;28;20063;-86
2023/06/11 06:23:15;;;;;;;7.97;7.55;;;;;;;;;;5000450;28;20516;-87
2023/06/11 06:25:41;;;;;;;8.20;7.70;;;;;;;;;;5015723;28;20068;-87
2023/06/11 06:28:07;;;;;;;8.50;7.80;;;;;;;;;;4999349;28;20045;-86
2023/06/11 06:30:34;;;;;;;8.05;7.45;;;;;;;;;;5015888;28;20047;-86
2023/06/11 06:33:00;;;;;;;7.63;7.10;;;;;;;;;;5016144;28;20053;-86
2023/06/11 06:35:26;;;;;;;7.82;7.25;;;;;;;;;;5000360;28;20059;-86
2023/06/11 06:37:52;;;;;;;7.65;7.03;;;;;;;;;;4999812;28;20049;-86
2023/06/11 06:40:18;;;;;;;7.88;7.43;;;;;;;;;;5032282;28;20045;-86
2023/06/11 06:42:47;;;;;;;8.45;7.78;;;;;;;;;;5015618;28;20505;-87
2023/06/11 06:45:13;;;;;;;7.88;7.28;;;;;;;;;;5015538;28;20045;-86
2023/06/11 06:47:39;;;;;;;7.20;6.80;;;;;;;;;;5015664;28;20418;-87
2023/06/11 06:50:06;;;;;;;7.78;7.28;;;;;;;;;;5015895;28;20048;-87
2023/06/11 06:52:32;;;;;;;7.32;6.72;;;;;;;;;;5019584;28;20134;-87
2023/06/11 06:54:58;;;;;;;7.25;6.85;;;;;;;;;;5003422;28;20049;-87
2023/06/11 06:57:24;;;;;;;6.93;6.53;;;;;;;;;;5019063;28;20544;-87
2023/06/11 06:59:50;;;;;;;7.13;6.57;;;;;;;;;;5002853;28;20391;-87
2023/06/11 07:02:16;;;;;;;7.30;6.80;;;;;;;;;;5019667;28;20393;-87
2023/06/11 07:04:42;;;;;;;6.93;6.30;;;;;;;;;;5003399;28;20144;-86
2023/06/11 07:07:11;;;;;;;7.22;6.57;;;;;;;;;;5019447;28;20135;-88
2023/06/11 07:09:37;;;;;;;7.10;6.38;;;;;;;;;;5020073;28;20045;-87
2023/06/11 07:12:03;;;;;;;6.53;6.13;;;;;;;;;;5020395;28;20054;-87
2023/06/11 07:14:29;;;;;;;7.88;7.30;;;;;;;;;;5018842;28;20491;-87
2023/06/11 07:16:55;;;;;;;7.13;6.43;;;;;;;;;;5002637;28;20053;-86
2023/06/11 07:19:21;;;;;;;7.50;6.38;;;;;;;;;;5019764;28;20402;-88
2023/06/11 07:21:47;;;;;;;6.50;5.88;;;;;;;;;;5019441;28;20076;-87
2023/06/11 07:24:14;;;;;;;7.03;6.32;;;;;;;;;;5036175;28;20080;-88
2023/06/11 07:26:42;;;;;;;6.30;5.90;;;;;;;;;;5003118;28;20053;-88
2023/06/11 07:29:08;;;;;;;6.75;6.35;;;;;;;;;;5019088;28;20127;-88
2023/06/11 07:31:34;;;;;;;6.03;5.60;;;;;;;;;;5019265;28;20088;-88
2023/06/11 07:34:00;;;;;;;6.90;5.40;;;;;;;;;;5008686;28;20056;-88
2023/06/11 07:36:26;;;;;;;6.20;5.70;;;;;;;;;;5020387;28;20068;-87
2023/06/11 07:38:52;;;;;;;6.50;6.15;;;;;;;;;;5025245;28;20045;-88
2023/06/11 07:41:21;;;;;;;6.10;5.60;;;;;;;;;;5021346;28;20041;-88
2023/06/11 07:43:53;;;;;;;6.65;6.35;;;;;;;;;;5022953;28;20135;-88
2023/06/11 07:46:19;;;;;;;6.13;5.72;;;;;;;;;;5035657;28;20478;-88
2023/06/11 07:48:47;;;;;;;6.10;5.70;;;;;;;;;;5035004;28;20045;-88
2023/06/11 07:51:25;;;;;;;6.10;5.45;;;;;;;;;;5034993;28;20087;-87
2023/06/11 07:53:51;;;;;;;5.57;5.22;;;;;;;;;;5020464;28;20132;-88
2023/06/11 07:56:20;;;;;;;5.55;5.20;;;;;;;;;;5018776;28;20472;-88
2023/06/11 07:58:49;;;;;;;5.10;4.80;;;;;;;;;;5018107;28;20483;-87
2023/06/11 08:01:36;;;;;;;5.57;5.07;;;;;;;;;;5035079;28;20049;-88
2023/06/11 08:04:17;;;;;;;4.85;4.47;;;;;;;;;;5017495;28;20053;-87
2023/06/11 08:06:52;;;;;;;5.90;5.50;;;;;;;;;;5018920;28;20045;-88
2023/06/11 08:09:19;;;;;;;6.53;5.20;;;;;;;;;;5003537;28;20136;-88
2023/06/11 08:11:45;;;;;;;5.63;5.22;;;;;;;;;;5018085;28;20450;-88
2023/06/11 08:14:21;;;;;;;5.63;5.22;;;;;;;;;;5018364;28;20053;-89
2023/06/11 08:16:55;;;;;;;5.72;5.22;;;;;;;;;;5035069;28;20079;-89
2023/06/11 08:19:23;;;;;;;5.00;4.70;;;;;;;;;;5018753;28;20059;-89
2023/06/11 08:21:55;;;;;;;4.93;4.65;;;;;;;;;;5034715;28;20057;-89
2023/06/11 08:24:26;;;;;;;4.32;4.13;;;;;;;;;;5034970;28;20056;-90
2023/06/11 08:27:12;;;;;;;4.93;4.63;;;;;;;;;;5018977;28;20112;-90
2023/06/11 08:29:46;;;;;;;4.82;4.43;;;;;;;;;;5019031;28;20099;-92
2023/06/11 08:32:17;;;;;;;5.05;4.65;;;;;;;;;;5035726;28;20237;-94
2023/06/11 08:34:45;;;;;;;5.15;4.50;;;;;;;;;;5019470;28;20045;-92
2023/06/11 08:37:17;;;;;;;5.18;4.88;;;;;;;;;;5018988;28;20056;-92
2023/06/11 08:39:45;;;;;;;5.15;4.75;;;;;;;;;;5003514;28;20076;-92
2023/06/11 08:42:14;;;;;;;4.30;4.10;;;;;;;;;;5019159;28;20049;-92
2023/06/11 08:44:42;;;;;;;4.72;4.43;;;;;;;;;;5035783;28;20049;-93
2023/06/11 08:47:11;;;;;;;4.93;4.50;;;;;;;;;;5019151;28;20049;-92
2023/06/11 08:49:40;;;;;;;4.35;4.03;;;;;;;;;;5002925;28;20046;-92
2023/06/11 08:52:12;;;;;;;4.72;4.43;;;;;;;;;;5036088;28;20056;-92
2023/06/11 08:54:45;;;;;;;4.60;4.15;;;;;;;;;;5018633;28;20080;-90
2023/06/11 08:57:25;;;;;;;4.85;4.43;;;;;;;;;;5019143;28;20045;-92
2023/06/11 08:59:53;;;;;;;4.50;4.13;;;;;;;;;;5018761;28;20041;-92
2023/06/11 09:02:22;;;;;;;4.20;4.00;;;;;;;;;;5017906;28;20056;-93
2023/06/11 09:04:50;;;;;;;4.80;4.50;;;;;;;;;;5018518;28;20055;-93
2023/06/11 09:07:25;;;;;;;4.68;4.25;;;;;;;;;;5018270;28;20049;-92
2023/06/11 09:10:18;;;;;;;4.85;4.10;;;;;;;;;;5018347;28;20049;-94
2023/06/11 09:12:44;;;;;;;4.20;4.00;;;;;;;;;;5018798;28;20056;-92
2023/06/11 09:15:12;;;;;;;3.53;3.42;;;;;;;;;;5018324;28;20055;-93
2023/06/11 09:17:40;;;;;;;4.75;4.50;;;;;;;;;;5018340;28;20140;-93
2023/06/11 09:20:13;;;;;;;4.38;4.00;;;;;;;;;;5018909;28;20053;-89
2023/06/11 09:22:51;;;;;;;4.43;4.22;;;;;;;;;;5018244;28;20041;-92
2023/06/11 09:25:22;;;;;;;4.10;3.60;;;;;;;;;;5019780;28;20059;-94
2023/06/11 09:27:51;;;;;;;3.80;3.50;;;;;;;;;;5018791;28;20034;-94
2023/06/11 09:30:26;;;;;;;3.15;2.95;;;;;;;;;;5018928;28;20084;-94
2023/06/11 09:33:05;;;;;;;;;;;;;;;;;;;;;
2023/06/11 09:35:49;;;;;;;3.75;3.10;;;;;;;;;;5021061;28;20053;-92
2023/06/11 09:38:18;;;;;;;3.65;3.35;;;;;;;;;;5019154;28;20056;-95
2023/06/11 09:40:54;;;;;;;3.92;3.55;;;;;;;;;;5003200;28;20045;-95
2023/06/11 09:43:34;;;;;;;3.47;3.17;;;;;;;;;;5019714;28;20033;-95
2023/06/11 09:46:10;;;;;;;4.60;3.50;;;;;;;;;;5020229;28;20045;-93
2023/06/11 09:48:47;;;;;;;;;;;;;;;;;;;;;
2023/06/11 09:51:26;;;;;;;3.80;2.85;;;;;;;;;;5038194;28;20045;-94
2023/06/11 09:54:06;;;;;;;3.35;3.08;;;;;;;;;;5006215;28;20042;-94
2023/06/11 09:56:39;;;;;;;3.08;2.78;;;;;;;;;;5020494;28;20060;-92
2023/06/11 09:59:39;;;;;;;;;;;;;;;;;;;;;
2023/06/11 10:02:13;;;;;;;;;;;;;;;;;;;;;
2023/06/11 10:04:51;;;;;;;3.33;3.00;;;;;;;;;;5051120;28;20060;-93
2023/06/11 10:07:23;;;;;;;2.95;2.63;;;;;;;;;;5035245;28;20093;-93
2023/06/11 10:09:57;;;;;;;2.55;2.35;;;;;;;;;;5034735;28;20025;-93
2023/06/11 10:12:36;;;;;;;3.28;3.10;;;;;;;;;;5025980;28;20053;-95
2023/06/11 10:18:05;;;;;;;3.13;2.92;;;;;;;;;;5020911;28;20536;-93
2023/06/11 10:24:03;;;;;;;3.13;2.85;;;;;;;;;;4999065;28;20146;-94
2023/06/11 10:27:05;;;;;;;;;;;;;;;;;;;;;
2023/06/11 10:30:06;;;;;;;3.95;3.00;;;;;;;;;;5032682;28;20108;-94
2023/06/11 10:32:35;;;;;;;;;;;;;;;;;;5016293;28;20183;-95
2023/06/11 10:38:26;;;;;;;5.80;3.00;;;;;;;;;;5025575;28;20042;-95
2023/06/11 10:41:08;;;;;;;2.75;2.45;;;;;;;;;;5026543;28;20041;-92
2023/06/11 10:43:54;;;;;;;2.95;2.75;;;;;;;;;;5011090;28;20084;-92
2023/06/11 10:46:43;;;;;;;3.08;2.88;;;;;;;;;;5026240;28;20049;-93
2023/06/11 10:49:26;;;;;;;;;;;;;;;;;;;;;
2023/06/11 10:52:05;;;;;;;;;;;;;;;;;;;;;
2023/06/11 10:54:37;;;;;;;3.35;3.10;;;;;;;;;;5058314;28;20073;-94
2023/06/11 10:57:23;;;;;;;2.50;2.40;;;;;;;;;;5043785;28;20030;-93
2023/06/11 11:00:22;;;;;;;;;;;;;;;;;;;;;
2023/06/11 11:03:25;;;;;;;2.83;2.30;;;;;;;;;;5056857;28;20077;-92
2023/06/11 11:06:25;;;;;;;;;;;;;;;;;;;;;
2023/06/11 11:12:03;;;;;;;3.58;3.25;;;;;;;;;;4932165;29;20055;-94
2023/06/11 11:14:40;;;;;;;;;;;;;;;;;;5025318;28;20068;-95
2023/06/11 11:17:46;;;;;;;;;;;;;;;;;;;;;
2023/06/11 11:23:19;;;;;;;4.55;2.63;;;;;;;;;;5026021;28;20049;-95
2023/06/11 11:26:03;;;;;;;3.38;3.10;;;;;;;;;;5021508;28;20132;-94
2023/06/11 11:28:37;;;;;;;2.75;2.63;;;;;;;;;;5011035;28;20042;-94
2023/06/11 11:31:11;;;;;;;3.85;2.80;;;;;;;;;;5015406;28;20037;-91
2023/06/11 11:33:38;;;;;;;3.30;3.00;;;;;;;;;;5023368;28;20132;-93
2023/06/11 11:36:14;;;;;;;3.75;3.45;;;;;;;;;;5040238;28;20508;-95
2023/06/11 11:38:52;;;;;;;2.97;2.72;;;;;;;;;;5023178;28;20088;-93
2023/06/11 11:41:38;;;;;;;3.58;2.80;;;;;;;;;;5022413;28;20508;-92
2023/06/11 11:44:20;;;;;;;;;;;;;;;;;;;;;
2023/06/11 11:47:22;;;;;;;;;;;;;;;;;;;;;
2023/06/11 11:50:05;;;;;;;3.33;3.10;;;;;;;;;;5038813;28;20497;-92
2023/06/11 11:52:47;;;;;;;;;;;;;;;;;;;;;
2023/06/11 11:55:27;;;;;;;;;;;;;;;;;;;;;
2023/06/11 11:58:14;;;;;;;;;;;;;;;;;;;;;
2023/06/11 12:01:26;;;;;;;3.30;3.10;;;;;;;;;;5038110;28;20053;-91
2023/06/11 12:04:35;;;;;;;;;;;;;;;;;;;;;
2023/06/11 12:07:20;;;;;;;;;;;;;;;;;;;;;
2023/06/11 12:13:14;;;;;;;3.25;3.05;;;;;;;;;;5019530;28;20127;-92
2023/06/11 12:15:47;;;;;;;3.22;3.00;;;;;;;;;;5036754;28;20064;-93
2023/06/11 12:18:55;;;;;;;3.70;2.95;;;;;;;;;;5019830;28;20073;-94
2023/06/11 12:21:47;;;;;;;4.22;3.28;;;;;;;;;;5023341;28;20378;-93
2023/06/11 12:24:28;;;;;;;4.60;3.30;;;;;;;;;;5013256;28;20059;-92
2023/06/11 12:27:02;;;;;;;4.60;2.92;;;;;;;;;;5010800;28;20052;-91
2023/06/11 12:29:35;;;;;;;2.92;2.72;;;;;;;;;;5041493;28;20045;-92
2023/06/11 12:37:45;;;;;;;3.95;2.78;;;;;;;;;;5042823;28;20453;-92
2023/06/11 12:40:27;;;;;;;3.45;3.15;;;;;;;;;;5021058;28;20045;-93
2023/06/11 12:42:58;;;;;;;4.82;3.13;;;;;;;;;;5021656;28;20045;-93
2023/06/11 12:45:35;;;;;;;3.28;3.00;;;;;;;;;;5005155;28;20055;-93
2023/06/11 12:48:22;;;;;;;4.03;3.40;;;;;;;;;;5019450;28;20329;-92
2023/06/11 12:50:58;;;;;;;;;;;;;;;;;;;;;
2023/06/11 12:53:33;;;;;;;3.40;3.05;;;;;;;;;;5037325;28;20041;-92
2023/06/11 12:56:10;;;;;;;;;;;;;;;;;;;;;
2023/06/11 12:58:41;;;;;;;4.10;2.70;;;;;;;;;;5036240;28;20068;-94
2023/06/11 13:04:00;;;;;;;3.15;2.78;;;;;;;;;;5037319;28;20053;-93
2023/06/11 13:06:47;;;;;;;;;;;;;;;;;;;;;
2023/06/11 13:09:41;;;;;;;;;;;;;;;;;;;;;
2023/06/11 13:12:10;;;;;;;3.15;2.85;;;;;;;;;;5021450;28;20132;-90
2023/06/11 13:14:46;;;;;;;3.15;2.88;;;;;;;;;;5035975;28;20121;-92
2023/06/11 13:17:35;;;;;;;2.85;2.60;;;;;;;;;;5018789;28;20057;-88
2023/06/11 13:20:21;;;;;;;3.83;3.03;;;;;;;;;;5026024;28;20163;-92
2023/06/11 13:23:03;;;;;;;3.05;2.67;;;;;;;;;;5022315;28;20045;-92
2023/06/11 13:25:41;;;;;;;5.10;3.13;;;;;;;;;;5021424;28;20428;-93
2023/06/11 13:28:30;;;;;;;4.10;2.75;;;;;;;;;;5007134;28;20057;-94
2023/06/11 13:31:09;;;;;;;;;;;;;;;;;;;;;
2023/06/11 13:33:41;;;;;;;6.43;3.42;;;;;;;;;;5036893;28;20132;-93
2023/06/11 13:36:36;;;;;;;;;;;;;;;;;;;;;
2023/06/11 13:39:03;;;;;;;3.70;3.22;;;;;;;;;;5036035;28;20478;-91
2023/06/11 13:41:48;;;;;;;;;;;;;;;;;;;;;
2023/06/11 13:44:33;;;;;;;3.25;2.70;;;;;;;;;;5022260;28;20088;-94
2023/06/11 13:47:09;;;;;;;3.65;2.63;;;;;;;;;;5004400;28;20050;-92
2023/06/11 13:52:53;;;;;;;2.80;2.63;;;;;;;;;;5022759;28;20497;-95
2023/06/11 13:58:27;;;;;;;;;;;;;;;;;;;;;
2023/06/11 14:01:26;;;;;;;;;;;;;;;;;;;;;
2023/06/11 14:04:13;;;;;;;3.28;2.50;;;;;;;;;;5036173;28;20045;-95
2023/06/11 14:06:49;;;;;;;2.63;2.28;;;;;;;;;;5020872;28;20045;-93
2023/06/11 14:09:39;;;;;;;;;;;;;;;;;;;;;
2023/06/11 14:12:13;;;;;;;2.60;2.40;;;;;;;;;;5036667;28;20049;-92
2023/06/11 14:14:45;;;;;;;2.97;2.78;;;;;;;;;;5021863;28;20521;-94
2023/06/11 14:17:24;;;;;;;;;;;;;;;;;;;;;
2023/06/11 14:20:08;;;;;;;;;;;;;;;;;;;;;
2023/06/11 14:22:34;;;;;;;;;;;;;;;;;;5022572;28;20045;-92
2023/06/11 14:25:09;;;;;;;2.88;2.67;;;;;;;;;;5022334;28;19921;-93
2023/06/11 14:28:10;;;;;;;;;;;;;;;;;;;;;
2023/06/11 14:30:50;;;;;;;6.15;2.60;;;;;;;;;;5037027;28;20049;-91
2023/06/11 14:33:40;;;;;;;3.30;3.00;;;;;;;;;;5021008;28;20466;-93
2023/06/11 14:36:35;;;;;;;3.20;2.88;;;;;;;;;;4956793;29;20578;-92
2023/06/11 14:39:34;;;;;;;;;;;;;;;;;;;;;
2023/06/11 14:42:08;;;;;;;3.67;2.80;;;;;;;;;;5041573;28;20424;-93
2023/06/11 14:44:40;;;;;;;2.75;2.55;;;;;;;;;;5021479;28;20504;-93
2023/06/11 14:47:16;;;;;;;;;;;;;;;;;;;;;
2023/06/11 14:49:43;;;;;;;2.70;2.50;;;;;;;;;;5036549;28;20092;-92
2023/06/11 14:52:13;;;;;;;2.63;2.42;;;;;;;;;;5018455;28;20103;-92
2023/06/11 14:54:49;;;;;;;2.78;2.58;;;;;;;;;;5035997;28;20046;-91
2023/06/11 14:57:54;;;;;;;3.47;3.05;;;;;;;;;;5029652;28;20080;-93
2023/06/11 15:00:32;;;;;;;3.22;3.03;;;;;;;;;;5005048;28;20104;-91
2023/06/11 15:03:08;;;;;;;;;;;;;;;;;;;;;
2023/06/11 15:05:40;;;;;;;3.67;2.88;;;;;;;;;;5035877;28;20080;-92
2023/06/11 15:08:11;;;;;;;3.55;2.72;;;;;;;;;;5036017;28;20486;-93
2023/06/11 15:10:37;;;;;;;4.78;2.58;;;;;;;;;;5019793;28;20049;-94
2023/06/11 15:13:06;;;;;;;3.10;2.88;;;;;;;;;;5022822;28;20097;-91
2023/06/11 15:15:52;;;;;;;;;;;;;;;;;;;;;
2023/06/11 15:18:19;;;;;;;;;;;;;;;;;;5041775;28;20068;-92
2023/06/11 15:20:57;;;;;;;;;;;;;;;;;;;;;
2023/06/11 15:27:09;;;;;;;5.13;3.03;;;;;;;;;;5032665;28;20499;-93
2023/06/11 15:29:38;;;;;;;3.90;2.72;;;;;;;;;;5021193;28;20589;-91
2023/06/11 15:32:04;;;;;;;3.25;3.00;;;;;;;;;;5025927;28;20048;-92
2023/06/11 15:34:54;;;;;;;3.00;2.70;;;;;;;;;;5041337;28;20049;-93
2023/06/11 15:37:30;;;;;;;4.20;3.22;;;;;;;;;;5039457;28;20045;-93
2023/06/11 15:40:08;;;;;;;3.00;2.90;;;;;;;;;;5024236;28;20052;-94
2023/06/11 15:42:44;;;;;;;2.65;2.45;;;;;;;;;;5008628;28;20045;-94
2023/06/11 15:45:16;;;;;;;3.25;2.72;;;;;;;;;;5009196;28;20053;-92
2023/06/11 15:47:56;;;;;;;4.25;2.88;;;;;;;;;;5023766;28;20045;-92
2023/06/11 15:50:32;;;;;;;3.53;3.20;;;;;;;;;;5023704;28;20041;-93
2023/06/11 15:53:14;;;;;;;4.25;3.28;;;;;;;;;;5022800;28;20199;-93
2023/06/11 15:59:15;;;;;;;4.18;3.03;;;;;;;;;;5037889;28;20092;-93
2023/06/11 16:02:25;;;;;;;3.88;2.97;;;;;;;;;;5038312;28;20042;-92
2023/06/11 16:08:21;;;;;;;4.38;3.45;;;;;;;;;;5040170;28;20120;-93
2023/06/11 16:11:26;;;;;;;3.55;3.25;;;;;;;;;;5021357;28;20041;-93
2023/06/11 16:14:26;;;;;;;;;;;;;;;;;;;;;
2023/06/11 16:16:58;;;;;;;3.45;3.17;;;;;;;;;;5039752;28;20057;-92
2023/06/11 16:19:38;;;;;;;;;;;;;;;;;;;;;
2023/06/11 16:22:07;;;;;;;4.85;2.88;;;;;;;;;;5037366;28;20049;-91
2023/06/11 16:24:41;;;;;;;3.97;3.00;;;;;;;;;;5021632;28;20061;-92
2023/06/11 16:27:21;;;;;;;;;;;;;;;;;;5006916;28;20045;-94
2023/06/11 16:29:54;;;;;;;3.35;2.95;;;;;;;;;;5020960;28;19975;-92
2023/06/11 16:32:28;;;;;;;2.70;2.50;;;;;;;;;;5039203;28;20473;-91
2023/06/11 16:35:06;;;;;;;4.20;2.53;;;;;;;;;;5038095;28;20124;-92
2023/06/11 16:37:49;;;;;;;;;;;;;;;;;;;;;
2023/06/11 16:40:20;;;;;;;4.53;2.65;;;;;;;;;;5037042;28;20050;-92